createdAt,value
2022-12-29T00:01:06.809Z,6.96
2022-12-29T00:03:39.647Z,6.79
2022-12-29T00:06:08.829Z,6.73
2022-12-29T00:08:43.668Z,6.69
2022-12-29T00:11:15.796Z,6.73
2022-12-29T00:14:03.679Z,6.71
2022-12-29T00:16:34.187Z,6.68
2022-12-29T00:19:04.105Z,6.61
2022-12-29T00:21:52.510Z,6.68
2022-12-29T00:24:29.271Z,6.65
2022-12-29T00:27:19.045Z,6.66
2022-12-29T00:30:06.418Z,6.50
2022-12-29T00:32:53.248Z,6.63
2022-12-29T00:35:30.402Z,6.71
2022-12-29T00:38:22.233Z,6.79
2022-12-29T00:41:13.589Z,6.63
2022-12-29T00:44:01.183Z,6.72
2022-12-29T00:46:29.928Z,6.83
2022-12-29T00:49:18.072Z,6.63
2022-12-29T00:51:47.360Z,6.68
2022-12-29T00:54:17.197Z,6.67
2022-12-29T00:56:53.265Z,6.61
2022-12-29T00:59:22.469Z,6.63
2022-12-29T01:01:54.663Z,6.50
2022-12-29T01:04:25.705Z,6.68
2022-12-29T01:06:55.189Z,6.54
2022-12-29T01:09:42.452Z,6.43
2022-12-29T01:12:11.941Z,6.47
2022-12-29T01:14:42.412Z,6.54
2022-12-29T01:17:11.462Z,6.49
2022-12-29T01:19:41.026Z,6.46
2022-12-29T01:22:10.018Z,6.55
2022-12-29T01:24:38.907Z,6.48
2022-12-29T01:27:08.145Z,6.38
2022-12-29T01:29:37.031Z,6.45
2022-12-29T01:32:07.465Z,6.43
2022-12-29T01:34:36.470Z,6.41
2022-12-29T01:37:05.931Z,6.40
2022-12-29T01:39:34.879Z,6.30
2022-12-29T01:42:03.843Z,6.29
2022-12-29T01:44:52.441Z,6.14
2022-12-29T01:47:46.438Z,6.30
2022-12-29T01:50:24.123Z,6.33
2022-12-29T01:53:01.561Z,6.26
2022-12-29T01:55:38.227Z,6.24
2022-12-29T01:58:09.862Z,6.25
2022-12-29T02:00:40.039Z,5.96
2022-12-29T02:03:10.710Z,6.14
2022-12-29T02:05:42.565Z,6.36
2022-12-29T02:08:15.947Z,6.40
2022-12-29T02:10:46.117Z,6.40
2022-12-29T02:13:18.296Z,6.21
2022-12-29T02:16:14.018Z,6.10
2022-12-29T02:18:57.997Z,6.22
2022-12-29T02:21:54.495Z,6.29
2022-12-29T02:24:41.404Z,6.40
2022-12-29T02:27:25.378Z,6.37
2022-12-29T02:30:14.126Z,6.36
2022-12-29T02:33:10.958Z,6.41
2022-12-29T02:35:53.054Z,6.40
2022-12-29T02:39:10.721Z,6.36
2022-12-29T02:42:05.419Z,6.32
2022-12-29T02:44:55.762Z,6.10
2022-12-29T02:47:40.628Z,6.24
2022-12-29T02:50:33.846Z,6.30
2022-12-29T02:53:07.837Z,6.26
2022-12-29T02:55:37.132Z,6.27
2022-12-29T02:58:24.158Z,6.29
2022-12-29T03:01:06.427Z,6.29
2022-12-29T03:04:02.206Z,6.26
2022-12-29T03:07:07.881Z,6.29
2022-12-29T03:09:49.144Z,6.17
2022-12-29T03:12:52.157Z,6.13
2022-12-29T03:15:48.282Z,6.07
2022-12-29T03:18:26.743Z,6.03
2022-12-29T03:21:05.899Z,6.05
2022-12-29T03:23:37.269Z,6.00
2022-12-29T03:26:12.388Z,6.01
2022-12-29T03:28:54.150Z,5.86
2022-12-29T03:31:28.162Z,5.80
2022-12-29T03:33:59.861Z,5.81
2022-12-29T03:36:49.523Z,5.75
2022-12-29T03:39:20.551Z,5.57
2022-12-29T03:41:56.058Z,5.57
2022-12-29T03:44:43.356Z,5.79
2022-12-29T03:47:17.117Z,5.88
2022-12-29T03:49:51.107Z,5.87
2022-12-29T03:52:21.448Z,5.70
2022-12-29T03:54:50.585Z,5.80
2022-12-29T03:57:21.120Z,5.83
2022-12-29T03:59:58.208Z,5.72
2022-12-29T04:02:27.322Z,5.73
2022-12-29T04:04:56.425Z,5.70
2022-12-29T04:07:26.119Z,5.65
2022-12-29T04:09:56.750Z,5.75
2022-12-29T04:12:28.622Z,5.75
2022-12-29T04:14:57.581Z,5.75
2022-12-29T04:17:27.010Z,5.79
2022-12-29T04:20:17.410Z,5.68
2022-12-29T04:22:47.001Z,5.74
2022-12-29T04:25:16.469Z,5.81
2022-12-29T04:27:47.790Z,5.87
2022-12-29T04:30:42.576Z,5.88
2022-12-29T04:33:20.923Z,5.91
2022-12-29T04:35:50.850Z,5.83
2022-12-29T04:38:19.987Z,5.73
2022-12-29T04:40:51.223Z,5.83
2022-12-29T04:43:24.022Z,5.78
2022-12-29T04:46:12.511Z,5.74
2022-12-29T04:49:06.397Z,5.77
2022-12-29T04:51:57.040Z,5.88
2022-12-29T04:54:26.194Z,5.93
2022-12-29T04:57:09.655Z,5.86
2022-12-29T04:59:40.590Z,5.81
2022-12-29T05:02:10.829Z,5.73
2022-12-29T05:04:40.027Z,5.56
2022-12-29T05:07:09.606Z,5.67
2022-12-29T05:09:39.579Z,5.69
2022-12-29T05:12:08.726Z,5.66
2022-12-29T05:14:42.215Z,5.56
2022-12-29T05:17:11.242Z,5.72
2022-12-29T05:19:40.129Z,5.68
2022-12-29T05:22:09.443Z,5.53
2022-12-29T05:24:40.045Z,5.65
2022-12-29T05:27:09.207Z,5.48
2022-12-29T05:29:57.352Z,5.44
2022-12-29T05:32:27.117Z,5.64
2022-12-29T05:34:56.968Z,5.40
2022-12-29T05:37:26.910Z,5.33
2022-12-29T05:39:58.546Z,5.16
2022-12-29T05:42:27.607Z,5.33
2022-12-29T05:45:14.590Z,5.63
2022-12-29T05:47:56.080Z,5.31
2022-12-29T05:50:34.434Z,5.40
2022-12-29T05:53:15.246Z,5.46
2022-12-29T05:55:48.738Z,5.40
2022-12-29T05:58:22.253Z,5.49
2022-12-29T06:00:51.316Z,5.65
2022-12-29T06:03:20.322Z,5.66
2022-12-29T06:05:49.619Z,5.56
2022-12-29T06:08:31.432Z,5.71
2022-12-29T06:11:00.506Z,5.81
2022-12-29T06:13:30.113Z,5.77
2022-12-29T06:16:00.123Z,5.47
2022-12-29T06:18:30.752Z,5.61
2022-12-29T06:21:05.043Z,5.53
2022-12-29T06:23:41.930Z,5.34
2022-12-29T06:26:10.982Z,5.53
2022-12-29T06:28:40.524Z,5.15
2022-12-29T06:31:12.922Z,5.29
2022-12-29T06:33:42.199Z,5.46
2022-12-29T06:36:12.390Z,5.16
2022-12-29T06:38:42.134Z,5.12
2022-12-29T06:41:11.455Z,4.96
2022-12-29T06:44:15.793Z,5.06
2022-12-29T06:47:02.732Z,5.13
2022-12-29T06:49:31.995Z,5.26
2022-12-29T06:52:05.067Z,5.10
2022-12-29T06:54:36.630Z,5.13
2022-12-29T06:57:05.567Z,5.00
2022-12-29T06:59:34.509Z,5.03
2022-12-29T07:02:04.095Z,4.93
2022-12-29T07:04:33.222Z,4.91
2022-12-29T07:07:02.405Z,4.93
2022-12-29T07:09:31.376Z,5.04
2022-12-29T07:12:00.340Z,5.16
2022-12-29T07:14:33.665Z,5.02
2022-12-29T07:17:08.077Z,4.85
2022-12-29T07:20:04.704Z,4.67
2022-12-29T07:22:41.625Z,4.64
2022-12-29T07:25:13.842Z,4.73
2022-12-29T07:27:43.325Z,4.76
2022-12-29T07:30:12.956Z,4.60
2022-12-29T07:32:44.948Z,4.65
2022-12-29T07:35:14.078Z,4.60
2022-12-29T07:37:42.999Z,4.78
2022-12-29T07:40:15.207Z,4.68
2022-12-29T07:42:44.269Z,4.81
2022-12-29T07:45:17.840Z,4.89
2022-12-29T07:48:09.313Z,4.90
2022-12-29T07:50:39.082Z,4.91
2022-12-29T07:53:11.217Z,4.96
2022-12-29T07:55:40.588Z,4.93
2022-12-29T07:58:09.662Z,4.81
2022-12-29T08:00:39.821Z,4.84
2022-12-29T08:03:13.381Z,4.89
2022-12-29T08:05:42.309Z,4.70
2022-12-29T08:08:14.115Z,4.43
2022-12-29T08:10:43.279Z,4.63
2022-12-29T08:13:16.811Z,4.59
2022-12-29T08:15:48.344Z,4.41
2022-12-29T08:18:17.332Z,4.48
2022-12-29T08:20:48.726Z,4.55
2022-12-29T08:23:20.104Z,4.51
2022-12-29T08:25:58.461Z,4.51
2022-12-29T08:28:27.970Z,4.42
2022-12-29T08:31:00.502Z,4.41
2022-12-29T08:33:30.601Z,4.44
2022-12-29T08:36:04.666Z,4.34
2022-12-29T08:38:34.261Z,4.35
2022-12-29T08:41:03.329Z,4.27
2022-12-29T08:43:32.673Z,4.18
2022-12-29T08:46:02.268Z,4.28
2022-12-29T08:48:31.412Z,4.40
2022-12-29T08:51:00.283Z,4.34
2022-12-29T08:53:29.288Z,4.22
2022-12-29T08:56:05.195Z,4.43
2022-12-29T08:58:44.641Z,4.42
2022-12-29T09:01:13.779Z,4.55
2022-12-29T09:04:14.301Z,4.48
2022-12-29T09:06:38.108Z,4.22
2022-12-29T09:09:10.101Z,4.37
2022-12-29T09:11:39.196Z,4.38
2022-12-29T09:14:08.209Z,4.34
2022-12-29T09:16:38.012Z,4.42
2022-12-29T09:19:07.407Z,4.43
2022-12-29T09:21:36.300Z,4.30
2022-12-29T09:24:05.915Z,4.20
2022-12-29T09:26:35.144Z,4.00
2022-12-29T09:29:04.105Z,4.09
2022-12-29T09:31:33.099Z,4.24
2022-12-29T09:34:02.296Z,4.35
2022-12-29T09:36:31.396Z,4.40
2022-12-29T09:39:00.271Z,4.35
2022-12-29T09:41:38.569Z,4.49
2022-12-29T09:44:19.379Z,4.36
2022-12-29T09:46:52.524Z,4.32
2022-12-29T09:49:33.947Z,4.16
2022-12-29T09:52:11.266Z,4.28
2022-12-29T09:55:09.121Z,4.35
2022-12-29T09:57:56.621Z,4.29
2022-12-29T10:00:41.688Z,4.10
2022-12-29T10:03:23.221Z,4.26
2022-12-29T10:06:01.289Z,4.40
2022-12-29T10:09:00.699Z,4.24
2022-12-29T10:11:42.799Z,4.52
2022-12-29T10:14:47.866Z,4.54
2022-12-29T10:17:42.010Z,4.53
2022-12-29T10:20:29.009Z,4.49
2022-12-29T10:23:18.763Z,4.38
2022-12-29T10:25:48.427Z,4.48
2022-12-29T10:28:24.642Z,4.30
2022-12-29T10:30:55.337Z,4.50
2022-12-29T10:33:33.882Z,4.69
2022-12-29T10:36:25.305Z,4.55
2022-12-29T10:39:23.808Z,4.66
2022-12-29T10:42:31.645Z,4.41
2022-12-29T10:45:04.966Z,4.35
2022-12-29T10:47:40.581Z,4.39
2022-12-29T10:50:09.842Z,4.49
2022-12-29T10:52:41.286Z,4.41
2022-12-29T10:55:23.334Z,4.40
2022-12-29T10:57:52.843Z,4.35
2022-12-29T11:00:23.847Z,4.36
2022-12-29T11:03:25.067Z,4.43
2022-12-29T11:06:20.713Z,4.73
2022-12-29T11:08:57.621Z,4.71
2022-12-29T11:11:34.646Z,4.78
2022-12-29T11:14:21.545Z,4.50
2022-12-29T11:17:16.385Z,4.77
2022-12-29T11:19:45.559Z,4.78
2022-12-29T11:22:26.634Z,4.19
2022-12-29T11:24:56.960Z,4.44
2022-12-29T11:27:28.207Z,4.59
2022-12-29T11:29:57.589Z,4.56
2022-12-29T11:32:33.981Z,4.45
2022-12-29T11:35:06.700Z,4.64
2022-12-29T11:37:44.642Z,4.57
2022-12-29T11:40:22.820Z,4.60
2022-12-29T11:42:58.564Z,4.28
2022-12-29T11:45:34.295Z,4.58
2022-12-29T11:48:09.939Z,4.36
2022-12-29T11:50:50.753Z,4.41
2022-12-29T11:53:27.145Z,4.56
2022-12-29T11:56:03.021Z,4.60
2022-12-29T11:58:38.163Z,4.60
2022-12-29T12:01:21.487Z,4.29
2022-12-29T12:04:05.821Z,4.21
2022-12-29T12:06:43.637Z,4.32
2022-12-29T12:09:25.222Z,4.17
2022-12-29T12:11:56.594Z,4.31
2022-12-29T12:15:03.737Z,4.12
2022-12-29T12:18:12.797Z,4.15
2022-12-29T12:20:56.798Z,4.01
2022-12-29T12:23:33.309Z,4.19
2022-12-29T12:26:12.757Z,4.27
2022-12-29T12:28:56.313Z,4.30
2022-12-29T12:31:59.962Z,4.19
2022-12-29T12:34:35.803Z,3.97
2022-12-29T12:37:28.319Z,3.97
2022-12-29T12:40:21.520Z,4.07
2022-12-29T12:42:56.329Z,4.14
2022-12-29T12:45:51.122Z,4.27
2022-12-29T12:48:50.668Z,4.27
2022-12-29T12:51:31.763Z,4.28
2022-12-29T12:54:06.835Z,4.35
2022-12-29T12:56:56.561Z,4.22
2022-12-29T12:59:44.910Z,4.23
2022-12-29T13:02:32.469Z,3.95
2022-12-29T13:05:07.359Z,4.10
2022-12-29T13:08:26.680Z,4.10
2022-12-29T13:11:16.617Z,4.10
2022-12-29T13:14:22.177Z,4.08
2022-12-29T13:17:05.825Z,4.22
2022-12-29T13:20:00.168Z,4.27
2022-12-29T13:22:50.385Z,4.32
2022-12-29T13:25:48.521Z,4.17
2022-12-29T13:28:29.272Z,4.08
2022-12-29T13:31:35.389Z,4.14
2022-12-29T13:34:26.943Z,4.10
2022-12-29T13:37:01.110Z,4.13
2022-12-29T13:39:53.186Z,4.10
2022-12-29T13:42:23.259Z,4.28
2022-12-29T13:45:28.565Z,4.21
2022-12-29T13:48:07.847Z,4.21
2022-12-29T13:50:40.300Z,4.24
2022-12-29T13:53:18.506Z,4.27
2022-12-29T13:55:53.033Z,4.18
2022-12-29T13:58:47.191Z,4.25
2022-12-29T14:01:50.580Z,4.28
2022-12-29T14:04:28.753Z,4.27
2022-12-29T14:07:15.567Z,4.35
2022-12-29T14:09:53.204Z,4.30
2022-12-29T14:12:39.255Z,4.43
2022-12-29T14:15:29.095Z,4.24
2022-12-29T14:18:14.014Z,4.39
2022-12-29T14:20:57.410Z,4.41
2022-12-29T14:23:41.678Z,4.42
2022-12-29T14:26:21.693Z,4.47
2022-12-29T14:28:51.269Z,4.48
2022-12-29T14:31:20.237Z,4.45
2022-12-29T14:34:14.233Z,4.42
2022-12-29T14:36:58.930Z,4.47
2022-12-29T14:39:47.443Z,4.60
2022-12-29T14:42:23.540Z,4.56
2022-12-29T14:44:52.434Z,4.51
2022-12-29T14:47:37.252Z,4.60
2022-12-29T14:50:07.824Z,4.62
2022-12-29T14:53:03.481Z,4.71
2022-12-29T14:55:48.951Z,4.65
2022-12-29T14:58:20.887Z,4.51
2022-12-29T15:00:50.892Z,4.41
2022-12-29T15:03:27.871Z,4.58
2022-12-29T15:06:14.758Z,4.69
2022-12-29T15:08:56.682Z,4.71
2022-12-29T15:11:47.702Z,4.66
2022-12-29T15:14:36.006Z,4.57
2022-12-29T15:17:30.287Z,4.52
2022-12-29T15:20:15.816Z,4.48
2022-12-29T15:22:47.357Z,4.57
2022-12-29T15:25:20.418Z,4.54
2022-12-29T15:27:55.289Z,4.60
2022-12-29T15:30:24.870Z,4.77
2022-12-29T15:32:56.195Z,4.73
2022-12-29T15:35:34.457Z,4.60
2022-12-29T15:38:28.155Z,4.51
2022-12-29T15:41:09.665Z,4.58
2022-12-29T15:44:06.502Z,4.76
2022-12-29T15:46:35.725Z,4.78
2022-12-29T15:49:11.188Z,4.61
2022-12-29T15:51:41.534Z,4.83
2022-12-29T15:54:23.539Z,4.82
2022-12-29T15:56:53.769Z,4.77
2022-12-29T15:59:31.732Z,4.65
2022-12-29T16:02:06.029Z,4.79
2022-12-29T16:05:08.805Z,4.75
2022-12-29T16:07:41.265Z,4.77
2022-12-29T16:10:35.680Z,4.91
2022-12-29T16:13:12.854Z,4.95
2022-12-29T16:15:41.891Z,5.05
2022-12-29T16:18:28.883Z,5.14
2022-12-29T16:20:59.428Z,5.20
2022-12-29T16:23:31.054Z,5.07
2022-12-29T16:26:02.141Z,5.14
2022-12-29T16:28:43.758Z,5.18
2022-12-29T16:31:26.828Z,5.21
2022-12-29T16:33:57.739Z,5.00
2022-12-29T16:36:35.636Z,4.93
2022-12-29T16:39:31.935Z,4.87
2022-12-29T16:42:01.780Z,4.94
2022-12-29T16:44:32.920Z,4.92
2022-12-29T16:47:13.932Z,4.88
2022-12-29T16:49:47.488Z,4.98
2022-12-29T16:52:26.962Z,4.82
2022-12-29T16:55:01.932Z,4.74
2022-12-29T16:57:33.948Z,5.13
2022-12-29T17:00:08.262Z,5.15
2022-12-29T17:02:46.532Z,4.85
2022-12-29T17:05:17.667Z,5.02
2022-12-29T17:07:47.893Z,5.13
2022-12-29T17:10:17.196Z,5.14
2022-12-29T17:12:49.098Z,5.17
2022-12-29T17:15:30.893Z,5.32
2022-12-29T17:18:01.859Z,5.34
2022-12-29T17:20:32.467Z,5.31
2022-12-29T17:23:01.818Z,5.45
2022-12-29T17:25:38.639Z,5.49
2022-12-29T17:28:28.092Z,5.24
2022-12-29T17:31:01.742Z,5.49
2022-12-29T17:33:36.096Z,5.49
2022-12-29T17:36:10.908Z,5.44
2022-12-29T17:38:40.204Z,5.62
2022-12-29T17:41:17.595Z,5.56
2022-12-29T17:43:46.601Z,5.40
2022-12-29T17:46:16.659Z,5.63
2022-12-29T17:48:51.513Z,5.67
2022-12-29T17:51:22.701Z,5.68
2022-12-29T17:53:52.940Z,5.51
2022-12-29T17:56:21.885Z,5.64
2022-12-29T17:58:51.693Z,5.75
2022-12-29T18:01:22.729Z,5.77
2022-12-29T18:03:51.955Z,5.80
2022-12-29T18:06:21.538Z,5.79
2022-12-29T18:08:50.495Z,5.84
2022-12-29T18:11:28.283Z,5.94
2022-12-29T18:13:57.579Z,5.93
2022-12-29T18:16:26.666Z,5.85
2022-12-29T18:18:55.723Z,5.88
2022-12-29T18:21:26.331Z,5.89
2022-12-29T18:23:55.382Z,6.04
2022-12-29T18:26:32.554Z,6.03
2022-12-29T18:29:01.814Z,5.93
2022-12-29T18:31:33.218Z,6.02
2022-12-29T18:34:08.973Z,6.16
2022-12-29T18:36:37.926Z,6.09
2022-12-29T18:39:09.808Z,6.09
2022-12-29T18:41:39.196Z,6.02
2022-12-29T18:44:14.501Z,6.08
2022-12-29T18:46:45.631Z,6.16
2022-12-29T18:49:14.717Z,6.16
2022-12-29T18:51:43.962Z,6.21
2022-12-29T18:54:27.559Z,6.33
2022-12-29T18:56:56.751Z,6.47
2022-12-29T18:59:26.274Z,6.45
2022-12-29T19:01:55.460Z,6.23
2022-12-29T19:04:24.372Z,6.11
2022-12-29T19:06:53.257Z,6.16
2022-12-29T19:09:27.529Z,6.22
2022-12-29T19:11:56.673Z,6.16
2022-12-29T19:14:25.575Z,6.26
2022-12-29T19:16:54.645Z,5.82
2022-12-29T19:19:23.585Z,6.14
2022-12-29T19:21:57.232Z,6.15
2022-12-29T19:24:26.171Z,6.27
2022-12-29T19:26:55.197Z,6.32
2022-12-29T19:29:24.330Z,6.45
2022-12-29T19:31:53.345Z,6.26
2022-12-29T19:34:22.283Z,6.36
2022-12-29T19:36:51.248Z,6.43
2022-12-29T19:39:20.341Z,6.16
2022-12-29T19:41:49.429Z,6.08
2022-12-29T19:44:21.296Z,6.23
2022-12-29T19:46:50.296Z,6.49
2022-12-29T19:49:19.325Z,6.73
2022-12-29T19:51:48.261Z,6.98
2022-12-29T19:54:17.147Z,6.73
2022-12-29T19:56:46.201Z,6.66
2022-12-29T19:59:15.162Z,7.31
2022-12-29T20:01:44.549Z,7.31
2022-12-29T20:04:13.605Z,7.34
2022-12-29T20:06:42.578Z,7.21
2022-12-29T20:09:11.562Z,7.16
2022-12-29T20:11:40.505Z,7.06
2022-12-29T20:14:10.412Z,7.10
2022-12-29T20:17:02.468Z,7.12
2022-12-29T20:19:28.685Z,7.16
2022-12-29T20:21:57.652Z,7.25
2022-12-29T20:24:26.807Z,6.91
2022-12-29T20:26:56.225Z,6.73
2022-12-29T20:29:25.175Z,6.62
2022-12-29T20:31:56.314Z,6.89
2022-12-29T20:34:25.362Z,7.10
2022-12-29T20:36:54.298Z,7.13
2022-12-29T20:39:23.351Z,7.28
2022-12-29T20:41:53.167Z,7.28
2022-12-29T20:44:23.861Z,7.67
2022-12-29T20:46:53.657Z,7.72
2022-12-29T20:49:22.630Z,7.55
2022-12-29T20:52:05.745Z,7.43
2022-12-29T20:54:39.432Z,7.75
2022-12-29T20:57:10.512Z,7.74
2022-12-29T20:59:39.546Z,7.73
2022-12-29T21:02:09.265Z,7.67
2022-12-29T21:05:13.526Z,7.77
2022-12-29T21:07:27.343Z,7.69
2022-12-29T21:09:56.351Z,7.61
2022-12-29T21:12:25.353Z,7.43
2022-12-29T21:14:57.072Z,7.54
2022-12-29T21:17:27.607Z,7.60
2022-12-29T21:19:56.575Z,7.60
2022-12-29T21:22:25.635Z,7.71
2022-12-29T21:24:54.570Z,7.62
2022-12-29T21:27:23.715Z,7.47
2022-12-29T21:29:52.833Z,7.47
2022-12-29T21:32:22.752Z,7.63
2022-12-29T21:34:51.678Z,7.61
2022-12-29T21:37:23.722Z,7.55
2022-12-29T21:39:53.007Z,7.73
2022-12-29T21:42:22.556Z,7.84
2022-12-29T21:45:15.236Z,7.69
2022-12-29T21:48:05.691Z,7.84
2022-12-29T21:50:34.332Z,7.91
2022-12-29T21:53:03.233Z,7.94
2022-12-29T21:55:32.203Z,7.87
2022-12-29T21:58:19.343Z,7.90
2022-12-29T22:01:06.676Z,7.43
2022-12-29T22:03:53.538Z,7.20
2022-12-29T22:06:41.093Z,7.20
2022-12-29T22:09:28.549Z,7.40
2022-12-29T22:12:15.825Z,7.46
2022-12-29T22:14:44.481Z,7.38
2022-12-29T22:17:14.399Z,7.25
2022-12-29T22:19:43.637Z,7.09
2022-12-29T22:22:16.635Z,7.09
2022-12-29T22:24:45.562Z,7.25
2022-12-29T22:27:15.191Z,7.41
2022-12-29T22:29:44.168Z,7.36
2022-12-29T22:32:15.283Z,7.35
2022-12-29T22:34:44.341Z,7.11
2022-12-29T22:37:13.237Z,7.34
2022-12-29T22:39:42.401Z,7.41
2022-12-29T22:42:14.899Z,7.28
2022-12-29T22:44:44.740Z,7.32
2022-12-29T22:47:15.997Z,6.97
2022-12-29T22:49:44.978Z,6.96
2022-12-29T22:52:15.979Z,7.08
2022-12-29T22:54:45.194Z,7.25
2022-12-29T22:57:17.340Z,6.89
2022-12-29T22:59:46.896Z,7.24
2022-12-29T23:02:18.000Z,7.23
2022-12-29T23:05:05.998Z,7.26
2022-12-29T23:07:36.390Z,7.24
2022-12-29T23:10:06.633Z,7.32
2022-12-29T23:12:35.563Z,7.33
2022-12-29T23:15:04.681Z,7.15
2022-12-29T23:17:37.214Z,7.30
2022-12-29T23:20:08.471Z,7.19
2022-12-29T23:22:37.473Z,6.89
2022-12-29T23:25:06.743Z,7.30
2022-12-29T23:27:35.689Z,7.31
2022-12-29T23:30:05.055Z,7.33
2022-12-29T23:32:34.030Z,7.36
2022-12-29T23:35:02.919Z,7.30
2022-12-29T23:37:32.144Z,7.12
2022-12-29T23:40:01.079Z,7.11
2022-12-29T23:42:30.189Z,7.22
2022-12-29T23:44:59.749Z,7.08
2022-12-29T23:47:29.115Z,7.06
2022-12-29T23:49:58.094Z,7.07
2022-12-29T23:52:29.718Z,7.11
2022-12-29T23:54:58.622Z,7.20
2022-12-29T23:57:27.517Z,7.22
